createdAt,value
2019-03-12T00:00:31.229Z,997.16
2019-03-12T00:01:31.217Z,997.07
2019-03-12T00:02:31.217Z,997.13
2019-03-12T00:03:31.198Z,997.14
2019-03-12T00:04:31.206Z,997.13
2019-03-12T00:05:31.186Z,997.10
2019-03-12T00:06:31.161Z,997.13
2019-03-12T00:07:31.153Z,997.14
2019-03-12T00:08:31.150Z,997.13
2019-03-12T00:09:31.164Z,997.08
2019-03-12T00:10:31.122Z,997.09
2019-03-12T00:11:31.105Z,997.11
2019-03-12T00:12:31.095Z,997.17
2019-03-12T00:13:31.090Z,997.22
2019-03-12T00:14:31.087Z,997.12
2019-03-12T00:15:31.087Z,997.15
2019-03-12T00:16:31.055Z,997.10
2019-03-12T00:17:31.042Z,997.01
2019-03-12T00:18:31.035Z,997.12
2019-03-12T00:19:31.030Z,997.09
2019-03-12T00:20:31.037Z,997.15
2019-03-12T00:21:30.999Z,997.11
2019-03-12T00:22:30.992Z,997.10
2019-03-12T00:23:30.980Z,997.10
2019-03-12T00:24:30.966Z,997.14
2019-03-12T00:25:30.987Z,997.17
2019-03-12T00:26:30.950Z,997.16
2019-03-12T00:27:30.937Z,997.18
2019-03-12T00:28:30.923Z,997.17
2019-03-12T00:29:30.913Z,997.21
2019-03-12T00:30:30.936Z,997.20
2019-03-12T00:31:30.893Z,997.23
2019-03-12T00:32:30.884Z,997.27
2019-03-12T00:33:30.866Z,997.25
2019-03-12T00:34:30.862Z,997.20
2019-03-12T00:35:30.869Z,997.17
2019-03-12T00:36:30.833Z,997.16
2019-03-12T00:37:30.828Z,997.17
2019-03-12T00:38:30.810Z,997.17
2019-03-12T00:39:30.807Z,997.22
2019-03-12T00:40:30.813Z,997.24
2019-03-12T00:41:30.780Z,997.17
2019-03-12T00:42:30.769Z,997.23
2019-03-12T00:43:30.755Z,997.22
2019-03-12T00:44:30.743Z,997.26
2019-03-12T00:45:30.755Z,997.29
2019-03-12T00:46:30.731Z,997.30
2019-03-12T00:47:30.711Z,997.28
2019-03-12T00:48:30.702Z,997.26
2019-03-12T00:49:30.693Z,997.26
2019-03-12T00:50:30.704Z,997.22
2019-03-12T00:51:30.669Z,997.23
2019-03-12T00:52:30.662Z,997.16
2019-03-12T00:53:30.647Z,997.20
2019-03-12T00:54:30.637Z,997.19
2019-03-12T00:55:30.650Z,997.14
2019-03-12T00:56:30.614Z,997.12
2019-03-12T00:57:30.600Z,997.14
2019-03-12T00:58:30.597Z,997.15
2019-03-12T00:59:30.579Z,997.10
2019-03-12T01:00:30.596Z,997.14
2019-03-12T01:01:30.555Z,997.10
2019-03-12T01:02:30.546Z,997.09
2019-03-12T01:03:30.535Z,997.09
2019-03-12T01:04:30.523Z,997.06
2019-03-12T01:05:30.536Z,997.07
2019-03-12T01:06:30.500Z,997.04
2019-03-12T01:07:30.489Z,997.08
2019-03-12T01:08:30.482Z,997.09
2019-03-12T01:09:30.470Z,997.05
2019-03-12T01:10:30.484Z,997.06
2019-03-12T01:11:30.447Z,997.06
2019-03-12T01:12:30.436Z,997.07
2019-03-12T01:13:30.423Z,997.10
2019-03-12T01:14:30.423Z,997.12
2019-03-12T01:15:30.401Z,997.14
2019-03-12T01:16:30.413Z,997.11
2019-03-12T01:17:30.379Z,997.07
2019-03-12T01:18:30.367Z,997.05
2019-03-12T01:19:30.359Z,997.02
2019-03-12T01:20:30.353Z,997.03
2019-03-12T01:21:30.361Z,997.01
2019-03-12T01:22:30.325Z,997.04
2019-03-12T01:23:30.314Z,997.01
2019-03-12T01:24:30.305Z,996.92
2019-03-12T01:25:30.294Z,996.92
2019-03-12T01:26:30.307Z,996.93
2019-03-12T01:27:30.270Z,996.93
2019-03-12T01:28:30.259Z,996.93
2019-03-12T01:29:30.248Z,996.91
2019-03-12T01:30:30.238Z,996.92
2019-03-12T01:31:30.250Z,996.93
2019-03-12T01:32:30.220Z,996.95
2019-03-12T01:33:30.205Z,996.93
2019-03-12T01:34:30.200Z,996.85
2019-03-12T01:35:30.183Z,996.86
2019-03-12T01:36:30.198Z,996.83
2019-03-12T01:37:30.164Z,996.79
2019-03-12T01:38:30.150Z,996.76
2019-03-12T01:39:30.144Z,996.80
2019-03-12T01:40:30.143Z,996.80
2019-03-12T01:41:30.147Z,996.77
2019-03-12T01:42:30.107Z,996.81
2019-03-12T01:43:30.097Z,996.86
2019-03-12T01:44:30.094Z,996.88
2019-03-12T01:45:30.083Z,996.85
2019-03-12T01:46:30.088Z,996.80
2019-03-12T01:47:30.055Z,996.82
2019-03-12T01:48:30.048Z,996.79
2019-03-12T01:49:30.036Z,996.80
2019-03-12T01:50:30.023Z,996.78
2019-03-12T01:51:31.166Z,996.78
2019-03-12T01:52:30.005Z,996.76
2019-03-12T01:53:29.996Z,996.73
2019-03-12T01:54:29.983Z,996.75
2019-03-12T01:55:29.969Z,996.71
2019-03-12T01:56:29.988Z,996.72
2019-03-12T01:57:29.957Z,996.74
2019-03-12T01:58:29.943Z,996.73
2019-03-12T01:59:29.932Z,996.74
2019-03-12T02:00:29.916Z,996.79
2019-03-12T02:01:29.945Z,996.77
2019-03-12T02:02:29.899Z,996.85
2019-03-12T02:03:29.886Z,996.86
2019-03-12T02:04:29.872Z,996.88
2019-03-12T02:05:29.864Z,996.89
2019-03-12T02:06:29.853Z,996.86
2019-03-12T02:07:29.863Z,996.86
2019-03-12T02:08:29.835Z,996.89
2019-03-12T02:09:29.823Z,996.87
2019-03-12T02:10:29.812Z,996.88
2019-03-12T02:11:29.799Z,996.86
2019-03-12T02:12:29.820Z,996.85
2019-03-12T02:13:29.782Z,996.82
2019-03-12T02:14:29.768Z,996.77
2019-03-12T02:15:29.757Z,996.78
2019-03-12T02:16:29.747Z,996.75
2019-03-12T02:17:29.761Z,996.75
2019-03-12T02:18:29.722Z,996.74
2019-03-12T02:19:29.711Z,996.75
2019-03-12T02:20:29.705Z,996.73
2019-03-12T02:21:29.688Z,996.67
2019-03-12T02:22:29.715Z,996.67
2019-03-12T02:23:29.668Z,996.63
2019-03-12T02:24:29.659Z,996.67
2019-03-12T02:25:29.648Z,996.67
2019-03-12T02:26:29.642Z,996.62
2019-03-12T02:27:29.646Z,996.61
2019-03-12T02:28:29.622Z,996.62
2019-03-12T02:29:29.607Z,996.60
2019-03-12T02:30:29.600Z,996.56
2019-03-12T02:31:29.590Z,996.52
2019-03-12T02:32:29.600Z,996.60
2019-03-12T02:33:29.568Z,996.51
2019-03-12T02:34:29.552Z,996.54
2019-03-12T02:35:29.539Z,996.52
2019-03-12T02:36:29.529Z,996.52
2019-03-12T02:37:29.550Z,996.48
2019-03-12T02:38:29.509Z,996.51
2019-03-12T02:39:29.556Z,996.47
2019-03-12T02:40:29.498Z,996.53
2019-03-12T02:41:29.482Z,996.57
2019-03-12T02:42:29.487Z,996.49
2019-03-12T02:43:29.467Z,996.50
2019-03-12T02:44:29.443Z,996.54
2019-03-12T02:45:29.444Z,996.47
2019-03-12T02:46:29.418Z,996.49
2019-03-12T02:47:29.455Z,996.50
2019-03-12T02:48:29.413Z,996.42
2019-03-12T02:49:29.394Z,996.50
2019-03-12T02:50:29.378Z,996.50
2019-03-12T02:51:29.368Z,996.51
2019-03-12T02:52:29.357Z,996.41
2019-03-12T02:53:29.371Z,996.40
2019-03-12T02:54:29.334Z,996.41
2019-03-12T02:55:29.334Z,996.44
2019-03-12T02:56:29.320Z,996.44
2019-03-12T02:57:29.302Z,996.44
2019-03-12T02:58:29.323Z,996.45
2019-03-12T02:59:29.285Z,996.44
2019-03-12T03:00:29.273Z,996.47
2019-03-12T03:01:29.259Z,996.35
2019-03-12T03:02:29.256Z,996.35
2019-03-12T03:03:29.263Z,996.34
2019-03-12T03:04:29.230Z,996.35
2019-03-12T03:05:29.219Z,996.30
2019-03-12T03:06:29.213Z,996.31
2019-03-12T03:07:29.194Z,996.25
2019-03-12T03:08:29.210Z,996.28
2019-03-12T03:09:29.175Z,996.29
2019-03-12T03:10:29.162Z,996.28
2019-03-12T03:11:29.154Z,996.23
2019-03-12T03:12:29.148Z,996.26
2019-03-12T03:13:29.156Z,996.23
2019-03-12T03:14:29.127Z,996.24
2019-03-12T03:15:29.107Z,996.27
2019-03-12T03:16:29.098Z,996.26
2019-03-12T03:17:29.093Z,996.26
2019-03-12T03:18:29.103Z,996.31
2019-03-12T03:19:29.063Z,996.35
2019-03-12T03:20:29.055Z,996.32
2019-03-12T03:21:29.052Z,996.34
2019-03-12T03:22:29.044Z,996.30
2019-03-12T03:23:29.046Z,996.27
2019-03-12T03:24:29.013Z,996.31
2019-03-12T03:25:29.003Z,996.33
2019-03-12T03:26:29.003Z,996.23
2019-03-12T03:27:29.700Z,996.26
2019-03-12T03:28:28.995Z,996.29
2019-03-12T03:29:28.960Z,996.33
2019-03-12T03:30:28.953Z,996.32
2019-03-12T03:31:28.975Z,996.32
2019-03-12T03:32:28.984Z,996.31
2019-03-12T03:33:29.140Z,996.34
2019-03-12T03:34:29.161Z,996.34
2019-03-12T03:35:28.892Z,996.35
2019-03-12T03:36:28.881Z,996.32
2019-03-12T03:37:28.873Z,996.28
2019-03-12T03:38:28.893Z,996.28
2019-03-12T03:39:29.032Z,996.25
2019-03-12T03:40:28.848Z,996.27
2019-03-12T03:41:28.831Z,996.27
2019-03-12T03:42:28.817Z,996.27
2019-03-12T03:43:29.044Z,996.27
2019-03-12T03:44:28.799Z,996.30
2019-03-12T03:45:28.796Z,996.31
2019-03-12T03:46:28.777Z,996.32
2019-03-12T03:47:28.768Z,996.28
2019-03-12T03:48:28.756Z,996.27
2019-03-12T03:49:28.761Z,996.28
2019-03-12T03:50:28.733Z,996.20
2019-03-12T03:51:28.732Z,996.24
2019-03-12T03:52:28.732Z,996.26
2019-03-12T03:53:28.702Z,996.23
2019-03-12T03:54:28.709Z,996.21
2019-03-12T03:55:28.676Z,996.24
2019-03-12T03:56:28.671Z,996.23
2019-03-12T03:57:28.654Z,996.19
2019-03-12T03:58:28.657Z,996.18
2019-03-12T03:59:28.658Z,996.18
2019-03-12T04:00:28.628Z,996.14
2019-03-12T04:01:28.624Z,996.12
2019-03-12T04:02:28.604Z,996.11
2019-03-12T04:03:28.599Z,996.10
2019-03-12T04:04:28.608Z,996.14
2019-03-12T04:05:28.568Z,996.17
2019-03-12T04:06:28.560Z,996.17
2019-03-12T04:07:28.550Z,996.10
2019-03-12T04:08:28.539Z,996.10
2019-03-12T04:09:28.558Z,996.15
2019-03-12T04:10:28.526Z,996.10
2019-03-12T04:11:28.504Z,996.08
2019-03-12T04:12:28.495Z,996.07
2019-03-12T04:13:28.487Z,996.10
2019-03-12T04:14:28.505Z,996.03
2019-03-12T04:15:28.469Z,996.02
2019-03-12T04:16:28.452Z,996.02
2019-03-12T04:17:28.441Z,996.01
2019-03-12T04:18:28.429Z,995.90
2019-03-12T04:19:28.442Z,995.92
2019-03-12T04:20:28.410Z,995.89
2019-03-12T04:21:28.407Z,995.88
2019-03-12T04:22:28.387Z,995.82
2019-03-12T04:23:28.387Z,995.88
2019-03-12T04:24:28.390Z,995.87
2019-03-12T04:25:28.356Z,995.84
2019-03-12T04:26:28.352Z,995.82
2019-03-12T04:27:28.337Z,995.82
2019-03-12T04:28:28.322Z,995.82
2019-03-12T04:29:28.334Z,995.77
2019-03-12T04:30:28.303Z,995.78
2019-03-12T04:31:28.292Z,995.75
2019-03-12T04:32:28.285Z,995.69
2019-03-12T04:33:28.274Z,995.68
2019-03-12T04:34:28.291Z,995.65
2019-03-12T04:35:28.262Z,995.63
2019-03-12T04:36:28.248Z,995.57
2019-03-12T04:37:28.224Z,995.56
2019-03-12T04:38:28.220Z,995.58
2019-03-12T04:39:28.206Z,995.52
2019-03-12T04:40:28.214Z,995.51
2019-03-12T04:41:28.179Z,995.50
2019-03-12T04:42:28.170Z,995.47
2019-03-12T04:43:28.161Z,995.49
2019-03-12T04:44:28.147Z,995.49
2019-03-12T04:45:28.166Z,995.50
2019-03-12T04:46:28.127Z,995.53
2019-03-12T04:47:28.118Z,995.50
2019-03-12T04:48:28.103Z,995.46
2019-03-12T04:49:28.097Z,995.51
2019-03-12T04:50:28.114Z,995.45
2019-03-12T04:51:28.072Z,995.48
2019-03-12T04:52:28.064Z,995.45
2019-03-12T04:53:28.052Z,995.47
2019-03-12T04:54:28.041Z,995.46
2019-03-12T04:55:28.058Z,995.46
2019-03-12T04:56:28.025Z,995.43
2019-03-12T04:57:28.007Z,995.39
2019-03-12T04:58:27.998Z,995.42
2019-03-12T04:59:27.994Z,995.39
2019-03-12T05:00:28.008Z,995.35
2019-03-12T05:01:27.965Z,995.36
2019-03-12T05:02:27.961Z,995.30
2019-03-12T05:03:27.946Z,995.28
2019-03-12T05:04:27.935Z,995.33
2019-03-12T05:05:27.949Z,995.28
2019-03-12T05:06:27.919Z,995.28
2019-03-12T05:07:27.902Z,995.26
2019-03-12T05:08:27.896Z,995.26
2019-03-12T05:09:27.883Z,995.22
2019-03-12T05:10:27.897Z,995.22
2019-03-12T05:11:27.857Z,995.23
2019-03-12T05:12:30.466Z,995.20
2019-03-12T05:13:27.839Z,995.20
2019-03-12T05:14:27.831Z,995.17
2019-03-12T05:15:27.837Z,995.18
2019-03-12T05:16:27.804Z,995.21
2019-03-12T05:17:27.800Z,995.24
2019-03-12T05:18:27.785Z,995.24
2019-03-12T05:19:27.773Z,995.19
2019-03-12T05:20:27.785Z,995.18
2019-03-12T05:21:27.754Z,995.18
2019-03-12T05:22:27.741Z,995.17
2019-03-12T05:23:27.729Z,995.14
2019-03-12T05:24:27.715Z,995.20
2019-03-12T05:25:27.730Z,995.18
2019-03-12T05:26:27.793Z,995.17
2019-03-12T05:27:27.684Z,995.14
2019-03-12T05:28:27.676Z,995.14
2019-03-12T05:29:27.664Z,995.11
2019-03-12T05:30:27.649Z,995.06
2019-03-12T05:31:27.669Z,995.06
2019-03-12T05:32:27.628Z,995.07
2019-03-12T05:33:27.619Z,995.01
2019-03-12T05:34:27.604Z,995.03
2019-03-12T05:35:27.601Z,995.05
2019-03-12T05:36:27.605Z,995.03
2019-03-12T05:37:27.575Z,994.98
2019-03-12T05:38:27.561Z,995.03
2019-03-12T05:39:27.558Z,995.03
2019-03-12T05:40:27.538Z,995.03
2019-03-12T05:41:27.558Z,994.98
2019-03-12T05:42:27.517Z,994.91
2019-03-12T05:43:27.512Z,994.94
2019-03-12T05:44:27.495Z,994.87
2019-03-12T05:45:27.487Z,994.84
2019-03-12T05:46:27.499Z,994.82
2019-03-12T05:47:27.465Z,994.86
2019-03-12T05:48:27.453Z,994.89
2019-03-12T05:49:27.442Z,994.94
2019-03-12T05:50:27.427Z,994.86
2019-03-12T05:51:27.443Z,994.91
2019-03-12T05:52:27.409Z,994.89
2019-03-12T05:53:27.399Z,994.87
2019-03-12T05:54:27.386Z,994.85
2019-03-12T05:55:27.374Z,994.83
2019-03-12T05:56:27.389Z,994.79
2019-03-12T05:57:27.350Z,994.79
2019-03-12T05:58:27.341Z,994.77
2019-03-12T05:59:27.330Z,994.72
2019-03-12T06:00:27.322Z,994.73
2019-03-12T06:01:27.336Z,994.72
2019-03-12T06:02:27.300Z,994.77
2019-03-12T06:03:27.283Z,994.78
2019-03-12T06:04:27.276Z,994.71
2019-03-12T06:05:27.265Z,994.76
2019-03-12T06:06:27.279Z,994.78
2019-03-12T06:07:27.239Z,994.76
2019-03-12T06:08:27.230Z,994.75
2019-03-12T06:09:30.397Z,994.77
2019-03-12T06:10:27.209Z,994.75
2019-03-12T06:11:27.232Z,994.74
2019-03-12T06:12:27.188Z,994.72
2019-03-12T06:13:27.176Z,994.69
2019-03-12T06:14:27.166Z,994.69
2019-03-12T06:15:27.156Z,994.72
2019-03-12T06:16:27.142Z,994.68
2019-03-12T06:17:27.154Z,994.68
2019-03-12T06:18:27.120Z,994.65
2019-03-12T06:19:27.106Z,994.61
2019-03-12T06:20:27.096Z,994.62
2019-03-12T06:21:27.085Z,994.58
2019-03-12T06:22:27.100Z,994.57
2019-03-12T06:23:27.064Z,994.54
2019-03-12T06:24:27.058Z,994.55
2019-03-12T06:25:27.045Z,994.57
2019-03-12T06:26:27.098Z,994.57
2019-03-12T06:27:27.044Z,994.60
2019-03-12T06:28:27.014Z,994.57
2019-03-12T06:29:27.003Z,994.58
2019-03-12T06:30:26.987Z,994.61
2019-03-12T06:31:26.971Z,994.58
2019-03-12T06:32:27.007Z,994.53
2019-03-12T06:33:26.953Z,994.48
2019-03-12T06:34:26.940Z,994.47
2019-03-12T06:35:26.936Z,994.44
2019-03-12T06:36:26.920Z,994.44
2019-03-12T06:37:26.939Z,994.40
2019-03-12T06:38:26.895Z,994.44
2019-03-12T06:39:26.887Z,994.45
2019-03-12T06:40:26.873Z,994.40
2019-03-12T06:41:26.867Z,994.43
2019-03-12T06:42:26.880Z,994.43
2019-03-12T06:43:26.850Z,994.43
2019-03-12T06:44:26.834Z,994.43
2019-03-12T06:45:26.820Z,994.44
2019-03-12T06:46:26.811Z,994.37
2019-03-12T06:47:26.830Z,994.30
2019-03-12T06:48:26.788Z,994.28
2019-03-12T06:49:26.782Z,994.28
2019-03-12T06:50:26.767Z,994.28
2019-03-12T06:51:26.759Z,994.24
2019-03-12T06:52:26.766Z,994.23
2019-03-12T06:53:26.744Z,994.24
2019-03-12T06:54:26.721Z,994.21
2019-03-12T06:55:26.714Z,994.18
2019-03-12T06:56:26.707Z,994.23
2019-03-12T06:57:26.794Z,994.18
2019-03-12T06:58:26.685Z,994.19
2019-03-12T06:59:26.664Z,994.21
2019-03-12T07:00:26.660Z,994.16
2019-03-12T07:01:26.646Z,994.10
2019-03-12T07:02:26.658Z,994.06
2019-03-12T07:03:26.624Z,994.08
2019-03-12T07:04:26.622Z,994.02
2019-03-12T07:05:26.600Z,993.98
2019-03-12T07:06:26.598Z,994.00
2019-03-12T07:07:26.616Z,993.92
2019-03-12T07:08:26.568Z,993.93
2019-03-12T07:09:26.561Z,993.93
2019-03-12T07:10:26.545Z,993.89
2019-03-12T07:11:26.538Z,993.83
2019-03-12T07:12:26.520Z,993.83
2019-03-12T07:13:26.535Z,993.76
2019-03-12T07:14:26.542Z,993.77
2019-03-12T07:15:26.545Z,993.75
2019-03-12T07:16:26.482Z,993.72
2019-03-12T07:17:26.465Z,993.65
2019-03-12T07:18:26.489Z,993.61
2019-03-12T07:19:26.539Z,993.57
2019-03-12T07:20:26.493Z,993.49
2019-03-12T07:21:26.420Z,993.50
2019-03-12T07:22:26.411Z,993.50
2019-03-12T07:23:26.431Z,993.49
2019-03-12T07:24:26.390Z,993.44
2019-03-12T07:25:26.376Z,993.45
2019-03-12T07:26:26.367Z,993.45
2019-03-12T07:27:26.353Z,993.49
2019-03-12T07:28:26.369Z,993.42
2019-03-12T07:29:26.333Z,993.44
2019-03-12T07:30:26.322Z,993.40
2019-03-12T07:31:26.443Z,993.38
2019-03-12T07:32:26.304Z,993.32
2019-03-12T07:33:26.322Z,993.28
2019-03-12T07:34:36.220Z,993.27
2019-03-12T07:35:27.268Z,993.26
2019-03-12T07:36:26.255Z,993.24
2019-03-12T07:37:26.242Z,993.24
2019-03-12T07:38:26.267Z,993.21
2019-03-12T07:39:26.222Z,993.16
2019-03-12T07:40:26.221Z,993.19
2019-03-12T07:41:32.406Z,993.12
2019-03-12T07:42:27.190Z,993.08
2019-03-12T07:43:26.205Z,993.09
2019-03-12T07:44:26.169Z,993.05
2019-03-12T07:45:26.171Z,993.03
2019-03-12T07:46:26.149Z,992.99
2019-03-12T07:47:35.328Z,993.01
2019-03-12T07:48:27.319Z,992.99
2019-03-12T07:49:26.155Z,992.93
2019-03-12T07:50:26.102Z,993.00
2019-03-12T07:51:26.198Z,992.97
2019-03-12T07:52:26.076Z,992.95
2019-03-12T07:53:26.190Z,992.88
2019-03-12T07:54:26.058Z,992.88
2019-03-12T07:55:26.042Z,992.82
2019-03-12T07:56:26.138Z,992.83
2019-03-12T07:57:26.113Z,992.79
2019-03-12T07:58:35.821Z,992.70
2019-03-12T07:59:27.144Z,992.75
2019-03-12T08:00:25.988Z,992.75
2019-03-12T08:01:26.094Z,992.68
2019-03-12T08:02:25.966Z,992.70
2019-03-12T08:03:25.966Z,992.60
2019-03-12T08:04:25.986Z,992.57
2019-03-12T08:05:28.339Z,992.66
2019-03-12T08:06:26.015Z,992.60
2019-03-12T08:07:25.907Z,992.57
2019-03-12T08:08:25.953Z,992.57
2019-03-12T08:09:27.511Z,992.51
2019-03-12T08:10:25.991Z,992.50
2019-03-12T08:11:25.863Z,992.51
2019-03-12T08:12:25.853Z,992.51
2019-03-12T08:13:25.849Z,992.45
2019-03-12T08:14:27.030Z,992.46
2019-03-12T08:15:25.860Z,992.46
2019-03-12T08:16:25.864Z,992.46
2019-03-12T08:17:25.800Z,992.41
2019-03-12T08:18:25.785Z,992.37
2019-03-12T08:19:25.821Z,992.39
2019-03-12T08:20:25.767Z,992.36
2019-03-12T08:21:25.766Z,992.40
2019-03-12T08:22:25.744Z,992.36
2019-03-12T08:23:25.729Z,992.31
2019-03-12T08:24:25.747Z,992.34
2019-03-12T08:25:25.709Z,992.30
2019-03-12T08:26:25.698Z,992.27
2019-03-12T08:27:26.225Z,992.25
2019-03-12T08:28:25.705Z,992.18
2019-03-12T08:29:25.703Z,992.16
2019-03-12T08:30:25.652Z,992.09
2019-03-12T08:31:25.638Z,992.07
2019-03-12T08:32:25.641Z,992.02
2019-03-12T08:33:25.621Z,992.06
2019-03-12T08:34:25.638Z,992.03
2019-03-12T08:35:25.594Z,992.03
2019-03-12T08:36:25.583Z,992.03
2019-03-12T08:37:25.604Z,992.02
2019-03-12T08:38:25.566Z,991.92
2019-03-12T08:39:25.603Z,991.91
2019-03-12T08:40:25.541Z,991.90
2019-03-12T08:41:25.527Z,991.86
2019-03-12T08:42:25.528Z,991.82
2019-03-12T08:43:25.503Z,991.79
2019-03-12T08:44:26.489Z,991.77
2019-03-12T08:45:25.494Z,991.75
2019-03-12T08:46:25.469Z,991.72
2019-03-12T08:47:25.459Z,991.69
2019-03-12T08:48:25.447Z,991.76
2019-03-12T08:49:25.464Z,991.72
2019-03-12T08:50:25.424Z,991.58
2019-03-12T08:51:25.447Z,991.63
2019-03-12T08:52:25.409Z,991.55
2019-03-12T08:53:25.413Z,991.51
2019-03-12T08:54:25.436Z,991.52
2019-03-12T08:55:25.368Z,991.53
2019-03-12T08:56:25.364Z,991.57
2019-03-12T08:57:25.345Z,991.55
2019-03-12T08:58:25.399Z,991.52
2019-03-12T08:59:25.326Z,991.44
2019-03-12T09:00:25.341Z,991.45
2019-03-12T09:01:25.375Z,991.43
2019-03-12T09:02:25.307Z,991.38
2019-03-12T09:03:25.282Z,991.37
2019-03-12T09:04:25.341Z,991.32
2019-03-12T09:05:25.284Z,991.32
2019-03-12T09:06:25.249Z,991.26
2019-03-12T09:07:25.241Z,991.34
2019-03-12T09:08:25.273Z,991.32
2019-03-12T09:09:25.226Z,991.38
2019-03-12T09:10:25.227Z,991.37
2019-03-12T09:11:25.241Z,991.41
2019-03-12T09:12:25.260Z,991.41
2019-03-12T09:13:25.178Z,991.34
2019-03-12T09:14:25.159Z,991.36
2019-03-12T09:15:25.180Z,991.34
2019-03-12T09:16:25.161Z,991.30
2019-03-12T09:17:25.171Z,991.32
2019-03-12T09:18:25.124Z,991.25
2019-03-12T09:19:25.127Z,991.23
2019-03-12T09:20:25.122Z,991.27
2019-03-12T09:21:25.082Z,991.19
2019-03-12T09:22:25.097Z,991.12
2019-03-12T09:23:25.067Z,991.10
2019-03-12T09:24:25.050Z,991.10
2019-03-12T09:25:25.071Z,991.12
2019-03-12T09:26:25.044Z,991.00
2019-03-12T09:27:25.021Z,991.01
2019-03-12T09:28:25.021Z,990.94
2019-03-12T09:29:25.014Z,990.97
2019-03-12T09:30:25.007Z,990.89
2019-03-12T09:31:24.978Z,990.89
2019-03-12T09:32:24.970Z,990.86
2019-03-12T09:33:24.972Z,990.85
2019-03-12T09:34:24.958Z,990.81
2019-03-12T09:35:24.962Z,990.76
2019-03-12T09:36:24.934Z,990.72
2019-03-12T09:37:24.909Z,990.80
2019-03-12T09:38:24.907Z,990.71
2019-03-12T09:39:24.888Z,990.67
2019-03-12T09:40:24.963Z,990.66
2019-03-12T09:41:24.887Z,990.62
2019-03-12T09:42:24.881Z,990.56
2019-03-12T09:43:24.856Z,990.56
2019-03-12T09:44:24.845Z,990.62
2019-03-12T09:45:24.871Z,990.56
2019-03-12T09:46:24.829Z,990.44
2019-03-12T09:47:24.813Z,990.46
2019-03-12T09:48:24.800Z,990.44
2019-03-12T09:49:27.389Z,990.40
2019-03-12T09:50:24.818Z,990.41
2019-03-12T09:51:24.753Z,990.41
2019-03-12T09:52:24.801Z,990.37
2019-03-12T09:53:24.732Z,990.34
2019-03-12T09:54:24.728Z,990.27
2019-03-12T09:55:24.759Z,990.29
2019-03-12T09:56:24.775Z,990.27
2019-03-12T09:57:24.691Z,990.20
2019-03-12T09:58:24.678Z,990.22
2019-03-12T09:59:24.665Z,990.23
2019-03-12T10:00:24.656Z,990.16
2019-03-12T10:01:24.675Z,990.12
2019-03-12T10:02:24.630Z,990.10
2019-03-12T10:03:24.641Z,990.12
2019-03-12T10:04:24.748Z,990.10
2019-03-12T10:05:24.604Z,990.07
2019-03-12T10:06:24.610Z,990.00
2019-03-12T10:07:24.580Z,989.94
2019-03-12T10:08:24.581Z,989.89
2019-03-12T10:09:24.561Z,989.85
2019-03-12T10:10:24.543Z,989.82
2019-03-12T10:11:24.568Z,989.80
2019-03-12T10:12:24.527Z,989.77
2019-03-12T10:13:24.522Z,989.77
2019-03-12T10:14:24.499Z,989.77
2019-03-12T10:15:24.486Z,989.78
2019-03-12T10:16:24.548Z,989.71
2019-03-12T10:17:24.556Z,989.74
2019-03-12T10:18:24.452Z,989.62
2019-03-12T10:19:24.453Z,989.61
2019-03-12T10:20:24.438Z,989.54
2019-03-12T10:21:24.448Z,989.56
2019-03-12T10:22:24.408Z,989.53
2019-03-12T10:23:24.432Z,989.52
2019-03-12T10:24:24.387Z,989.52
2019-03-12T10:25:24.379Z,989.51
2019-03-12T10:26:24.392Z,989.53
2019-03-12T10:27:24.361Z,989.52
2019-03-12T10:28:24.367Z,989.51
2019-03-12T10:29:24.371Z,989.45
2019-03-12T10:30:24.343Z,989.46
2019-03-12T10:31:24.356Z,989.43
2019-03-12T10:32:24.319Z,989.31
2019-03-12T10:33:24.290Z,989.31
2019-03-12T10:34:29.532Z,989.28
2019-03-12T10:35:25.263Z,989.33
2019-03-12T10:36:24.497Z,989.30
2019-03-12T10:37:24.243Z,989.35
2019-03-12T10:38:24.229Z,989.27
2019-03-12T10:39:24.246Z,989.29
2019-03-12T10:40:24.207Z,989.30
2019-03-12T10:41:24.233Z,989.22
2019-03-12T10:42:24.191Z,989.16
2019-03-12T10:43:24.184Z,989.16
2019-03-12T10:44:24.165Z,989.16
2019-03-12T10:45:24.165Z,989.19
2019-03-12T10:46:24.151Z,989.26
2019-03-12T10:47:24.161Z,989.19
2019-03-12T10:48:24.131Z,988.98
2019-03-12T10:49:36.639Z,988.98
2019-03-12T10:50:25.132Z,989.05
2019-03-12T10:51:24.087Z,989.04
2019-03-12T10:52:24.105Z,988.97
2019-03-12T10:53:24.067Z,988.90
2019-03-12T10:54:24.055Z,988.90
2019-03-12T10:55:24.125Z,988.84
2019-03-12T10:56:24.034Z,988.80
2019-03-12T10:57:24.040Z,988.76
2019-03-12T10:58:24.111Z,988.74
2019-03-12T10:59:23.991Z,988.76
2019-03-12T11:00:23.996Z,988.81
2019-03-12T11:01:23.977Z,988.78
2019-03-12T11:02:23.989Z,988.75
2019-03-12T11:03:23.952Z,988.70
2019-03-12T11:04:23.948Z,988.63
2019-03-12T11:05:23.973Z,988.58
2019-03-12T11:06:23.946Z,988.58
2019-03-12T11:07:23.951Z,988.60
2019-03-12T11:08:23.907Z,988.51
2019-03-12T11:09:23.889Z,988.56
2019-03-12T11:10:23.882Z,988.62
2019-03-12T11:11:23.861Z,988.55
2019-03-12T11:12:23.880Z,988.51
2019-03-12T11:13:23.845Z,988.52
2019-03-12T11:14:23.837Z,988.47
2019-03-12T11:15:23.826Z,988.43
2019-03-12T11:16:23.823Z,988.47
2019-03-12T11:17:23.838Z,988.44
2019-03-12T11:18:23.785Z,988.45
2019-03-12T11:19:23.773Z,988.38
2019-03-12T11:20:23.766Z,988.33
2019-03-12T11:21:23.753Z,988.29
2019-03-12T11:22:23.742Z,988.22
2019-03-12T11:23:23.750Z,988.11
2019-03-12T11:24:23.718Z,988.20
2019-03-12T11:25:27.618Z,988.12
2019-03-12T11:26:23.694Z,988.18
2019-03-12T11:27:23.694Z,988.15
2019-03-12T11:28:26.608Z,988.11
2019-03-12T11:29:23.669Z,988.15
2019-03-12T11:30:23.649Z,988.12
2019-03-12T11:31:23.651Z,988.07
2019-03-12T11:32:23.654Z,988.06
2019-03-12T11:33:23.639Z,987.96
2019-03-12T11:34:23.609Z,987.90
2019-03-12T11:35:23.593Z,987.91
2019-03-12T11:36:23.614Z,987.91
2019-03-12T11:37:23.578Z,987.86
2019-03-12T11:38:23.725Z,987.85
2019-03-12T11:39:23.564Z,987.84
2019-03-12T11:40:23.596Z,987.75
2019-03-12T11:41:23.537Z,987.72
2019-03-12T11:42:23.544Z,987.72
2019-03-12T11:43:23.579Z,987.69
2019-03-12T11:44:23.505Z,987.57
2019-03-12T11:45:35.662Z,987.68
2019-03-12T11:46:24.509Z,987.68
2019-03-12T11:47:23.460Z,987.67
2019-03-12T11:48:23.493Z,987.73
2019-03-12T11:49:23.448Z,987.70
2019-03-12T11:50:23.461Z,987.65
2019-03-12T11:51:23.425Z,987.60
2019-03-12T11:52:23.471Z,987.57
2019-03-12T11:53:23.419Z,987.55
2019-03-12T11:54:23.382Z,987.59
2019-03-12T11:55:23.408Z,987.56
2019-03-12T11:56:23.719Z,987.45
2019-03-12T11:57:23.374Z,987.44
2019-03-12T11:58:23.382Z,987.25
2019-03-12T11:59:23.334Z,987.37
2019-03-12T12:00:23.336Z,987.38
2019-03-12T12:01:23.319Z,987.40
2019-03-12T12:02:23.295Z,987.34
2019-03-12T12:03:23.384Z,987.33
2019-03-12T12:04:23.273Z,987.32
2019-03-12T12:05:23.260Z,987.23
2019-03-12T12:06:23.250Z,987.34
2019-03-12T12:07:23.269Z,987.20
2019-03-12T12:08:23.224Z,987.27
2019-03-12T12:09:23.307Z,987.15
2019-03-12T12:10:23.216Z,987.13
2019-03-12T12:11:23.192Z,987.16
2019-03-12T12:12:23.198Z,987.13
2019-03-12T12:13:23.173Z,987.13
2019-03-12T12:14:23.196Z,987.00
2019-03-12T12:15:23.147Z,987.02
2019-03-12T12:16:23.136Z,986.92
2019-03-12T12:17:23.126Z,986.96
2019-03-12T12:18:23.113Z,986.86
2019-03-12T12:19:23.127Z,986.81
2019-03-12T12:20:29.642Z,986.81
2019-03-12T12:21:24.080Z,986.74
2019-03-12T12:22:23.079Z,986.78
2019-03-12T12:23:23.104Z,986.68
2019-03-12T12:24:26.316Z,986.64
2019-03-12T12:25:23.062Z,986.63
2019-03-12T12:26:23.058Z,986.60
2019-03-12T12:27:23.073Z,986.53
2019-03-12T12:28:22.999Z,986.53